Time;durP1;ratioP1;P1;durP2;ratioP2;P2;SDS_P1;SDS_P2;PMS_P1;PMS_P2;Temp;Humidity;BMP_temperature;BMP_pressure;BME280_temperature;BME280_humidity;BME280_pressure;Samples;Min_cycle;Max_cycle;Signal;HPM_P1;HPM_P2
2023/10/28 00:00:47;;;;;;;23.92;15.77;;;10.70;99.90;;;;;;5072510;28;20044;-44
2023/10/28 00:03:13;;;;;;;24.00;15.27;;;10.70;99.90;;;;;;5072563;28;20041;-46
2023/10/28 00:05:39;;;;;;;26.48;16.45;;;10.70;99.90;;;;;;5066130;28;20032;-45
2023/10/28 00:08:05;;;;;;;23.55;15.80;;;10.70;99.90;;;;;;5065390;28;20052;-46
2023/10/28 00:10:31;;;;;;;30.05;16.60;;;10.70;99.90;;;;;;5072498;28;20110;-48
2023/10/28 00:12:57;;;;;;;25.25;16.02;;;10.70;99.90;;;;;;5072519;28;20544;-46
2023/10/28 00:15:24;;;;;;;24.30;16.10;;;10.70;99.90;;;;;;5071165;28;20041;-44
2023/10/28 00:17:50;;;;;;;26.63;15.50;;;10.60;99.90;;;;;;5072375;28;20040;-46
2023/10/28 00:20:19;;;;;;;23.38;16.83;;;10.70;99.90;;;;;;5072497;28;20115;-46
2023/10/28 00:22:49;;;;;;;28.05;16.83;;;10.70;99.90;;;;;;5072336;28;20075;-47
2023/10/28 00:25:16;;;;;;;24.55;17.23;;;10.70;99.90;;;;;;5072194;28;20052;-47
2023/10/28 00:27:44;;;;;;;29.23;18.08;;;10.80;99.90;;;;;;5072229;28;20085;-45
2023/10/28 00:30:11;;;;;;;30.67;17.20;;;10.80;99.90;;;;;;5072225;28;20040;-46
2023/10/28 00:32:37;;;;;;;31.42;18.27;;;10.70;99.90;;;;;;5071918;28;20040;-48
2023/10/28 00:35:05;;;;;;;27.88;18.13;;;10.80;99.90;;;;;;5066788;28;20037;-46
2023/10/28 00:37:31;;;;;;;30.10;19.20;;;10.80;99.90;;;;;;5070810;28;20109;-46
2023/10/28 00:39:57;;;;;;;32.13;19.40;;;10.80;99.90;;;;;;5072051;28;20437;-45
2023/10/28 00:42:24;;;;;;;30.15;19.40;;;10.80;99.90;;;;;;5055917;28;20026;-46
2023/10/28 00:44:50;;;;;;;34.28;19.20;;;10.70;99.90;;;;;;5061963;28;20037;-45
2023/10/28 00:47:16;;;;;;;33.55;19.95;;;10.80;99.90;;;;;;5072097;28;20044;-46
2023/10/28 00:49:43;;;;;;;31.90;19.08;;;10.80;99.90;;;;;;5059589;28;20055;-47
2023/10/28 00:52:09;;;;;;;39.78;20.85;;;10.80;99.90;;;;;;5069207;28;20124;-47
2023/10/28 00:54:35;;;;;;;37.78;21.95;;;10.80;99.90;;;;;;5072131;28;20086;-48
2023/10/28 00:57:01;;;;;;;37.55;21.40;;;10.80;99.90;;;;;;5071225;28;20556;-46
2023/10/28 00:59:28;;;;;;;33.47;20.83;;;10.80;99.90;;;;;;5071671;28;20502;-45
2023/10/28 01:01:54;;;;;;;36.95;21.77;;;10.70;99.90;;;;;;5071983;28;20040;-46
2023/10/28 01:04:20;;;;;;;39.67;23.23;;;10.70;99.90;;;;;;5064012;28;20479;-49
2023/10/28 01:06:46;;;;;;;45.38;23.50;;;10.80;99.90;;;;;;5051631;28;20051;-47
2023/10/28 01:09:12;;;;;;;37.55;22.40;;;10.90;99.90;;;;;;5051648;28;20049;-47
2023/10/28 01:11:41;;;;;;;36.15;22.13;;;10.80;99.90;;;;;;5050396;28;20803;-45
2023/10/28 01:14:07;;;;;;;44.90;24.48;;;10.80;99.90;;;;;;5051552;28;20085;-50
2023/10/28 01:16:34;;;;;;;41.28;23.77;;;10.80;99.90;;;;;;5051592;28;20040;-48
2023/10/28 01:19:00;;;;;;;42.15;23.98;;;11.00;99.90;;;;;;5052074;28;20108;-46
2023/10/28 01:21:26;;;;;;;47.13;24.77;;;10.90;99.90;;;;;;5051593;28;20094;-46
2023/10/28 01:23:54;;;;;;;49.97;27.63;;;11.00;99.90;;;;;;5051617;28;20482;-47
2023/10/28 01:26:20;;;;;;;36.47;23.98;;;10.90;99.90;;;;;;5050577;28;20037;-45
2023/10/28 01:28:46;;;;;;;42.92;25.65;;;10.80;99.90;;;;;;5050115;28;20036;-46
2023/10/28 01:31:12;;;;;;;48.03;26.40;;;10.90;99.90;;;;;;5051327;28;20063;-46
2023/10/28 01:33:38;;;;;;;48.83;26.92;;;11.00;99.90;;;;;;5051532;28;20155;-47
2023/10/28 01:36:04;;;;;;;50.28;26.70;;;11.00;99.90;;;;;;5051633;28;20049;-45
2023/10/28 01:38:30;;;;;;;46.25;25.23;;;10.90;99.90;;;;;;5051178;28;20033;-45
2023/10/28 01:40:56;;;;;;;52.38;27.58;;;10.90;99.90;;;;;;5051358;28;20490;-45
2023/10/28 01:43:22;;;;;;;43.10;23.50;;;11.00;99.90;;;;;;5051220;28;20112;-44
2023/10/28 01:45:48;;;;;;;51.97;27.08;;;11.00;99.90;;;;;;5049926;28;20033;-47
2023/10/28 01:48:14;;;;;;;49.33;25.75;;;11.00;99.90;;;;;;5051451;28;20040;-47
2023/10/28 01:50:40;;;;;;;47.70;26.42;;;11.00;99.90;;;;;;5051157;28;20037;-45
2023/10/28 01:53:06;;;;;;;43.75;25.30;;;10.90;99.90;;;;;;5051208;28;20549;-45
2023/10/28 01:55:32;;;;;;;47.42;26.35;;;10.90;99.90;;;;;;5051149;28;20037;-48
2023/10/28 01:57:58;;;;;;;49.00;27.42;;;11.00;99.90;;;;;;5051161;28;20033;-45
2023/10/28 02:00:26;;;;;;;46.50;27.55;;;11.10;99.90;;;;;;5051281;28;20044;-46
2023/10/28 02:02:52;;;;;;;49.92;27.67;;;11.00;99.90;;;;;;5051266;28;20037;-45
2023/10/28 02:05:18;;;;;;;45.85;26.55;;;11.00;99.90;;;;;;5051026;28;20044;-48
2023/10/28 02:07:45;;;;;;;53.25;28.13;;;11.00;99.90;;;;;;5052107;28;20557;-45
2023/10/28 02:10:11;;;;;;;43.95;25.80;;;11.10;99.90;;;;;;5069560;28;20148;-45
2023/10/28 02:12:37;;;;;;;43.33;26.20;;;11.00;99.90;;;;;;5073538;28;20040;-45
2023/10/28 02:15:08;;;;;;;54.03;29.75;;;11.10;99.90;;;;;;5068958;28;20536;-44
2023/10/28 02:17:38;;;;;;;44.90;26.63;;;11.00;99.90;;;;;;5074559;28;20032;-47
2023/10/28 02:20:04;;;;;;;50.20;27.63;;;11.00;99.90;;;;;;5073568;28;20043;-45
2023/10/28 02:22:34;;;;;;;46.33;26.38;;;11.00;99.90;;;;;;5073493;28;20123;-45
2023/10/28 02:24:59;;;;;;;49.38;26.35;;;11.00;99.90;;;;;;5074564;28;20072;-48
2023/10/28 02:27:25;;;;;;;45.83;25.05;;;11.10;99.90;;;;;;5074680;28;20080;-44
2023/10/28 02:29:51;;;;;;;45.72;27.52;;;11.10;99.90;;;;;;5074581;28;20040;-45
2023/10/28 02:32:17;;;;;;;54.00;28.45;;;11.10;99.90;;;;;;5074370;28;20028;-44
2023/10/28 02:34:43;;;;;;;48.83;26.33;;;11.00;99.90;;;;;;5074592;28;20037;-46
2023/10/28 02:37:10;;;;;;;42.10;24.70;;;11.00;99.90;;;;;;5074457;28;20043;-47
2023/10/28 02:39:36;;;;;;;44.47;25.88;;;10.90;99.90;;;;;;5072995;28;20044;-46
2023/10/28 02:42:02;;;;;;;41.97;25.60;;;10.80;99.90;;;;;;5074337;28;20048;-46
2023/10/28 02:44:30;;;;;;;50.15;27.80;;;10.80;99.90;;;;;;5074233;28;20040;-46
2023/10/28 02:46:56;;;;;;;45.57;27.53;;;10.80;99.90;;;;;;5074299;28;20055;-47
2023/10/28 02:49:21;;;;;;;45.15;26.65;;;10.80;99.90;;;;;;5073991;28;20487;-45
2023/10/28 02:51:47;;;;;;;48.80;26.48;;;10.80;99.90;;;;;;5074090;28;20044;-47
2023/10/28 02:54:15;;;;;;;41.70;24.20;;;10.80;99.90;;;;;;5074164;28;20097;-45
2023/10/28 02:56:41;;;;;;;40.25;25.17;;;10.70;99.90;;;;;;5074341;28;20040;-45
2023/10/28 02:59:07;;;;;;;44.90;24.08;;;10.70;99.90;;;;;;5074154;28;20037;-46
2023/10/28 03:01:38;;;;;;;43.33;24.75;;;10.70;99.90;;;;;;5074192;28;20068;-46
2023/10/28 03:04:04;;;;;;;39.75;23.45;;;10.60;99.90;;;;;;5073975;28;20048;-47
2023/10/28 03:06:30;;;;;;;42.90;24.25;;;10.70;99.90;;;;;;5073665;28;20351;-47
2023/10/28 03:08:56;;;;;;;46.58;24.60;;;10.70;99.90;;;;;;5073619;28;20052;-49
2023/10/28 03:11:21;;;;;;;40.25;24.00;;;10.70;99.90;;;;;;5073103;28;20166;-48
2023/10/28 03:13:47;;;;;;;36.60;22.63;;;10.70;99.90;;;;;;5063111;28;20045;-46
2023/10/28 03:16:13;;;;;;;42.03;23.00;;;10.60;99.90;;;;;;5053620;28;20402;-47
2023/10/28 03:18:39;;;;;;;35.67;22.17;;;10.70;99.90;;;;;;5053308;28;20115;-45
2023/10/28 03:21:06;;;;;;;36.80;22.92;;;10.60;99.90;;;;;;5053464;28;20041;-46
2023/10/28 03:23:32;;;;;;;34.58;21.83;;;10.60;99.90;;;;;;5053749;28;20349;-47
2023/10/28 03:25:58;;;;;;;33.63;21.42;;;10.70;99.90;;;;;;5053407;28;20039;-46
2023/10/28 03:28:23;;;;;;;38.35;22.02;;;10.60;99.90;;;;;;5053505;28;20032;-46
2023/10/28 03:30:49;;;;;;;40.40;23.42;;;10.70;99.90;;;;;;5053483;28;20490;-46
2023/10/28 03:33:15;;;;;;;36.97;22.13;;;10.60;99.90;;;;;;5053310;28;20067;-47
2023/10/28 03:35:41;;;;;;;42.13;21.58;;;10.70;99.90;;;;;;5053203;28;20483;-46
2023/10/28 03:38:07;;;;;;;37.40;20.60;;;10.60;99.90;;;;;;5053328;28;20115;-47
2023/10/28 03:40:33;;;;;;;40.47;20.92;;;10.60;99.90;;;;;;5053345;28;20040;-46
2023/10/28 03:42:59;;;;;;;43.25;22.13;;;10.50;99.90;;;;;;5053107;28;20121;-45
2023/10/28 03:45:24;;;;;;;36.72;21.17;;;10.50;99.90;;;;;;5052959;28;20037;-45
2023/10/28 03:47:50;;;;;;;32.53;19.98;;;10.50;99.90;;;;;;5053050;28;20045;-45
2023/10/28 03:50:16;;;;;;;28.08;18.55;;;10.50;99.90;;;;;;5052699;28;20040;-45
2023/10/28 03:52:41;;;;;;;33.10;19.63;;;10.50;99.90;;;;;;5052001;28;20479;-46
2023/10/28 03:55:08;;;;;;;31.10;19.25;;;10.50;99.90;;;;;;5052970;28;20037;-46
2023/10/28 03:57:33;;;;;;;30.75;18.02;;;10.50;99.90;;;;;;5053058;28;20095;-46
2023/10/28 03:59:59;;;;;;;36.67;21.33;;;10.50;99.90;;;;;;5051900;28;20028;-47
2023/10/28 04:02:28;;;;;;;31.10;18.42;;;10.50;99.90;;;;;;5067489;28;20033;-45
2023/10/28 04:04:55;;;;;;;40.83;20.73;;;10.60;99.90;;;;;;5052921;28;20106;-46
2023/10/28 04:07:21;;;;;;;31.77;20.45;;;10.50;99.90;;;;;;5059989;28;20055;-46
2023/10/28 04:09:46;;;;;;;36.45;18.90;;;10.50;99.90;;;;;;5072269;28;20439;-46
2023/10/28 04:12:12;;;;;;;30.95;18.98;;;10.50;99.90;;;;;;5072715;28;20111;-46
2023/10/28 04:14:38;;;;;;;31.10;18.50;;;10.50;99.90;;;;;;5058382;28;20386;-49
2023/10/28 04:17:04;;;;;;;31.67;19.23;;;10.50;99.90;;;;;;5072530;28;20074;-45
2023/10/28 04:19:30;;;;;;;33.25;19.25;;;10.60;99.90;;;;;;5072297;28;20047;-49
2023/10/28 04:21:55;;;;;;;35.33;20.02;;;10.50;99.90;;;;;;5072759;28;20040;-48
2023/10/28 04:24:22;;;;;;;33.85;18.75;;;10.50;99.90;;;;;;5072235;28;20048;-49
2023/10/28 04:26:48;;;;;;;34.58;20.33;;;10.50;99.90;;;;;;5072018;28;20482;-46
2023/10/28 04:29:14;;;;;;;28.42;18.90;;;10.40;99.90;;;;;;5072222;28;20058;-47
2023/10/28 04:31:39;;;;;;;31.08;18.27;;;10.40;99.90;;;;;;5071326;28;20471;-47
2023/10/28 04:34:05;;;;;;;32.45;19.38;;;10.50;99.90;;;;;;5072123;28;20043;-48
2023/10/28 04:36:31;;;;;;;30.05;18.63;;;10.40;99.90;;;;;;5072267;28;20040;-45
2023/10/28 04:38:57;;;;;;;32.03;18.20;;;10.50;99.90;;;;;;5072246;28;20028;-46
2023/10/28 04:41:22;;;;;;;30.35;19.30;;;10.50;99.90;;;;;;5072222;28;20043;-46
2023/10/28 04:43:48;;;;;;;34.45;19.08;;;10.50;99.90;;;;;;5071946;28;20059;-47
2023/10/28 04:46:15;;;;;;;31.20;19.90;;;10.50;99.90;;;;;;5072021;28;20494;-47
2023/10/28 04:48:46;;;;;;;28.95;19.33;;;10.50;99.90;;;;;;5070707;28;20188;-46
2023/10/28 04:51:12;;;;;;;32.67;19.08;;;10.40;99.90;;;;;;5072085;28;20036;-46
2023/10/28 04:53:38;;;;;;;32.22;19.00;;;10.40;99.90;;;;;;5071962;28;20072;-45
2023/10/28 04:56:06;;;;;;;34.05;19.55;;;10.40;99.90;;;;;;5072036;28;20103;-47
2023/10/28 04:58:32;;;;;;;37.55;20.00;;;10.50;99.90;;;;;;5070570;28;20047;-46
2023/10/28 05:00:58;;;;;;;31.10;19.45;;;10.50;99.90;;;;;;5053881;28;20041;-49
2023/10/28 05:03:23;;;;;;;30.63;19.45;;;10.40;99.90;;;;;;5071626;28;20051;-47
2023/10/28 05:05:49;;;;;;;32.50;18.55;;;10.40;99.90;;;;;;5071961;28;20444;-47
2023/10/28 05:08:16;;;;;;;34.53;19.48;;;10.40;99.90;;;;;;5070738;28;20040;-48
2023/10/28 05:10:41;;;;;;;34.40;19.58;;;10.40;99.90;;;;;;5071510;28;20108;-46
2023/10/28 05:13:10;;;;;;;35.63;20.80;;;10.50;99.90;;;;;;5066279;28;20486;-46
2023/10/28 05:15:36;;;;;;;37.58;20.45;;;10.50;99.90;;;;;;5051884;28;20081;-47
2023/10/28 05:18:02;;;;;;;37.88;21.20;;;10.40;99.90;;;;;;5034026;28;20099;-47
2023/10/28 05:20:28;;;;;;;32.28;18.85;;;10.50;99.90;;;;;;5051805;28;20048;-47
2023/10/28 05:22:54;;;;;;;36.67;20.02;;;10.50;99.90;;;;;;5050407;28;20049;-45
2023/10/28 05:25:19;;;;;;;35.90;19.45;;;10.60;99.90;;;;;;5050371;28;20069;-48
2023/10/28 05:27:45;;;;;;;29.98;18.42;;;10.50;99.90;;;;;;5051586;28;20410;-45
2023/10/28 05:30:11;;;;;;;35.83;19.58;;;10.60;99.90;;;;;;5051027;28;20037;-47
2023/10/28 05:32:39;;;;;;;36.65;20.52;;;10.60;99.90;;;;;;5051272;28;20048;-46
2023/10/28 05:35:08;;;;;;;31.60;19.60;;;10.70;99.90;;;;;;5033461;28;20040;-46
2023/10/28 05:37:33;;;;;;;40.65;19.88;;;10.60;99.90;;;;;;5048282;28;20276;-46
2023/10/28 05:39:59;;;;;;;31.55;18.85;;;10.60;99.90;;;;;;5051249;28;20044;-46
2023/10/28 05:42:25;;;;;;;33.72;19.08;;;10.70;99.90;;;;;;5053650;28;20506;-45
2023/10/28 05:44:50;;;;;;;38.70;20.80;;;10.50;99.90;;;;;;5054099;28;20077;-47
2023/10/28 05:47:16;;;;;;;39.55;19.95;;;10.70;99.90;;;;;;5055271;28;20124;-47
2023/10/28 05:49:42;;;;;;;36.60;21.13;;;10.60;99.90;;;;;;5037530;28;20033;-46
2023/10/28 05:52:09;;;;;;;38.42;20.20;;;10.60;99.90;;;;;;5054955;28;20029;-47
2023/10/28 05:54:35;;;;;;;38.20;20.38;;;10.60;99.90;;;;;;5053974;28;20041;-45
2023/10/28 05:57:00;;;;;;;37.75;19.60;;;10.70;99.90;;;;;;5055089;28;20032;-47
2023/10/28 05:59:26;;;;;;;41.90;18.88;;;10.60;99.90;;;;;;5055046;28;20443;-49
2023/10/28 06:01:52;;;;;;;33.97;21.10;;;10.60;99.90;;;;;;5065213;28;20048;-47
2023/10/28 06:04:21;;;;;;;36.97;20.05;;;10.60;99.90;;;;;;5074008;28;20394;-47
2023/10/28 06:06:47;;;;;;;36.17;20.60;;;10.70;99.90;;;;;;5074838;28;20115;-47
2023/10/28 06:09:13;;;;;;;31.30;19.25;;;10.60;99.90;;;;;;5074618;28;20495;-49
2023/10/28 06:11:40;;;;;;;34.78;20.17;;;10.60;99.90;;;;;;5070063;28;20055;-47
2023/10/28 06:14:05;;;;;;;39.25;20.52;;;10.60;99.90;;;;;;5054879;28;20407;-49
2023/10/28 06:16:31;;;;;;;33.92;20.90;;;10.70;99.90;;;;;;5054894;28;20040;-47
2023/10/28 06:18:57;;;;;;;30.10;19.05;;;10.60;99.90;;;;;;5055263;28;20696;-46
2023/10/28 06:21:23;;;;;;;35.20;20.10;;;10.60;99.90;;;;;;5053574;28;20065;-49
2023/10/28 06:23:48;;;;;;;38.90;20.58;;;10.60;99.90;;;;;;5054620;28;20036;-47
2023/10/28 06:26:14;;;;;;;30.13;19.70;;;10.60;99.90;;;;;;5054593;28;20036;-46
2023/10/28 06:28:41;;;;;;;39.15;19.35;;;10.70;99.90;;;;;;5054653;28;20033;-45
2023/10/28 06:31:07;;;;;;;37.35;20.13;;;10.70;99.90;;;;;;5054939;28;20044;-47
2023/10/28 06:33:33;;;;;;;30.60;20.08;;;10.60;99.90;;;;;;5054410;28;20471;-46
2023/10/28 06:35:58;;;;;;;35.10;18.60;;;10.60;99.90;;;;;;5054435;28;20041;-48
2023/10/28 06:38:29;;;;;;;35.33;18.65;;;10.70;99.90;;;;;;5054349;28;20033;-45
2023/10/28 06:40:54;;;;;;;30.23;18.15;;;10.70;99.90;;;;;;5053208;28;20098;-44
2023/10/28 06:43:23;;;;;;;35.72;18.17;;;10.70;99.90;;;;;;5053100;28;20053;-45
2023/10/28 06:45:48;;;;;;;29.77;18.43;;;10.60;99.90;;;;;;5054243;28;20045;-49
2023/10/28 06:48:15;;;;;;;31.60;18.40;;;10.70;99.90;;;;;;5052640;28;20037;-48
2023/10/28 06:50:41;;;;;;;30.33;17.17;;;10.80;99.90;;;;;;5054294;28;20124;-46
2023/10/28 06:53:09;;;;;;;31.00;17.15;;;10.70;99.90;;;;;;5052117;28;20087;-48
2023/10/28 06:55:34;;;;;;;30.60;17.30;;;10.80;99.90;;;;;;5053478;28;20092;-48
2023/10/28 06:58:00;;;;;;;31.88;16.92;;;10.80;99.90;;;;;;5053990;28;20044;-45
2023/10/28 07:00:29;;;;;;;33.03;17.63;;;10.80;99.90;;;;;;5053890;28;20087;-47
2023/10/28 07:02:58;;;;;;;28.40;16.73;;;10.80;99.90;;;;;;5053708;28;20095;-46
2023/10/28 07:05:24;;;;;;;27.27;17.17;;;10.80;99.90;;;;;;5040935;28;20107;-46
2023/10/28 07:07:50;;;;;;;27.80;14.77;;;10.80;99.90;;;;;;5034442;28;20038;-45
2023/10/28 07:10:16;;;;;;;27.23;14.60;;;10.80;99.90;;;;;;5046069;28;20053;-46
2023/10/28 07:12:42;;;;;;;30.20;15.77;;;10.90;99.90;;;;;;5051325;28;20044;-46
2023/10/28 07:15:11;;;;;;;26.70;14.23;;;10.90;99.90;;;;;;5045308;28;20040;-50
2023/10/28 07:17:39;;;;;;;30.38;13.88;;;10.90;99.90;;;;;;5039478;28;20048;-48
2023/10/28 07:20:06;;;;;;;22.55;14.43;;;10.90;99.90;;;;;;5041281;28;20057;-45
2023/10/28 07:22:33;;;;;;;26.05;12.90;;;10.90;99.90;;;;;;5036469;28;20395;-46
2023/10/28 07:24:58;;;;;;;24.67;12.82;;;10.90;99.90;;;;;;5036861;28;20045;-45
2023/10/28 07:27:24;;;;;;;22.67;11.60;;;10.90;99.90;;;;;;5033060;28;20045;-47
2023/10/28 07:29:50;;;;;;;20.38;11.40;;;10.90;99.90;;;;;;5052703;28;20040;-48
2023/10/28 07:32:16;;;;;;;21.92;11.70;;;11.00;99.90;;;;;;5034349;28;20415;-47
2023/10/28 07:34:42;;;;;;;18.42;10.10;;;11.00;99.90;;;;;;5050046;28;20045;-48
2023/10/28 07:37:08;;;;;;;17.85;10.05;;;11.00;99.90;;;;;;5044303;28;20513;-46
2023/10/28 07:39:34;;;;;;;19.52;10.85;;;11.00;99.90;;;;;;5040382;28;20053;-46
2023/10/28 07:42:00;;;;;;;19.75;9.70;;;11.10;99.90;;;;;;5045852;28;20119;-45
2023/10/28 07:44:26;;;;;;;16.67;10.38;;;11.10;99.90;;;;;;5043062;28;20132;-45
2023/10/28 07:46:52;;;;;;;19.83;9.75;;;11.10;99.90;;;;;;5037046;28;20036;-45
2023/10/28 07:49:18;;;;;;;13.48;8.30;;;11.10;99.90;;;;;;5050715;28;20041;-50
2023/10/28 07:51:44;;;;;;;15.05;9.43;;;11.10;99.90;;;;;;5047969;28;20033;-48
2023/10/28 07:54:14;;;;;;;14.30;9.00;;;11.10;99.90;;;;;;5047587;28;20502;-45
2023/10/28 07:56:41;;;;;;;14.38;9.05;;;11.20;99.90;;;;;;5039770;28;20476;-45
2023/10/28 07:59:09;;;;;;;18.35;8.82;;;11.10;99.90;;;;;;5039054;28;20037;-45
2023/10/28 08:01:34;;;;;;;14.57;8.60;;;11.20;99.90;;;;;;5041694;28;20052;-46
2023/10/28 08:04:04;;;;;;;13.57;8.10;;;11.20;99.90;;;;;;5055453;28;20041;-47
2023/10/28 08:06:30;;;;;;;11.60;7.22;;;11.20;99.90;;;;;;5037441;28;20142;-45
2023/10/28 08:08:56;;;;;;;8.45;6.85;;;11.20;99.90;;;;;;5056740;28;20095;-47
2023/10/28 08:11:24;;;;;;;15.63;7.32;;;11.30;99.90;;;;;;5055031;28;20044;-46
2023/10/28 08:13:53;;;;;;;11.53;7.57;;;11.20;99.90;;;;;;5059897;28;20036;-47
2023/10/28 08:16:21;;;;;;;9.80;6.28;;;11.40;99.90;;;;;;5050790;28;20272;-49
2023/10/28 08:18:47;;;;;;;10.90;6.63;;;11.60;99.90;;;;;;5048714;28;20045;-45
2023/10/28 08:21:19;;;;;;;9.77;6.20;;;11.80;99.90;;;;;;5033730;28;20029;-45
2023/10/28 08:23:45;;;;;;;8.80;6.03;;;11.90;99.90;;;;;;5033761;28;20044;-48
2023/10/28 08:26:12;;;;;;;12.27;5.80;;;11.90;99.90;;;;;;5040841;28;20423;-46
2023/10/28 08:28:39;;;;;;;10.63;5.20;;;12.00;99.90;;;;;;5036225;28;20033;-45
2023/10/28 08:31:08;;;;;;;9.23;6.13;;;12.10;99.90;;;;;;5036869;28;20099;-47
2023/10/28 08:33:38;;;;;;;11.05;6.78;;;12.10;99.90;;;;;;5037345;28;20040;-44
2023/10/28 08:36:04;;;;;;;11.77;6.05;;;12.10;99.90;;;;;;5047634;28;20039;-46
2023/10/28 08:38:32;;;;;;;9.25;5.75;;;12.00;99.90;;;;;;5045499;28;20044;-49
2023/10/28 08:41:03;;;;;;;9.20;6.30;;;12.00;99.90;;;;;;5047895;28;20391;-46
2023/10/28 08:43:31;;;;;;;9.73;5.88;;;11.90;99.90;;;;;;5041475;28;20048;-50
2023/10/28 08:45:57;;;;;;;6.93;5.70;;;11.90;99.90;;;;;;5043017;28;20040;-45
2023/10/28 08:48:23;;;;;;;8.38;6.05;;;11.90;99.90;;;;;;5044080;28;20077;-46
2023/10/28 08:50:54;;;;;;;11.50;5.93;;;11.90;99.90;;;;;;5051605;28;20029;-45
2023/10/28 08:53:21;;;;;;;7.28;5.10;;;11.90;99.90;;;;;;5051722;28;20036;-48
2023/10/28 08:55:52;;;;;;;8.13;5.18;;;11.90;99.90;;;;;;5051576;28;20037;-46
2023/10/28 08:58:19;;;;;;;10.55;5.70;;;11.80;99.90;;;;;;5051572;28;20453;-47
2023/10/28 09:00:50;;;;;;;8.93;5.78;;;11.80;99.90;;;;;;5051382;28;20044;-45
2023/10/28 09:03:20;;;;;;;10.05;6.25;;;11.80;99.90;;;;;;5051690;28;20051;-47
2023/10/28 09:05:48;;;;;;;11.27;6.00;;;11.90;99.90;;;;;;5051648;28;20045;-45
2023/10/28 09:08:14;;;;;;;9.80;6.18;;;11.90;99.90;;;;;;5050121;28;20487;-45
2023/10/28 09:10:45;;;;;;;9.57;5.82;;;11.90;99.90;;;;;;5051114;28;20056;-48
2023/10/28 09:13:13;;;;;;;8.90;5.85;;;11.80;99.90;;;;;;5051172;28;20110;-45
2023/10/28 09:15:39;;;;;;;11.15;5.65;;;11.90;99.90;;;;;;5067207;28;20037;-46
2023/10/28 09:18:05;;;;;;;10.48;6.00;;;11.80;99.90;;;;;;5042617;28;20110;-49
2023/10/28 09:20:31;;;;;;;8.98;5.90;;;11.90;99.90;;;;;;5070734;28;20041;-48
2023/10/28 09:22:57;;;;;;;12.57;5.57;;;11.80;99.90;;;;;;5066328;28;20045;-46
2023/10/28 09:25:22;;;;;;;8.18;5.45;;;11.80;99.90;;;;;;5047976;28;20051;-49
2023/10/28 09:27:48;;;;;;;10.55;4.93;;;11.80;99.90;;;;;;5045517;28;20044;-46
2023/10/28 09:30:15;;;;;;;12.35;6.10;;;11.80;99.90;;;;;;5044732;28;20069;-45
2023/10/28 09:32:41;;;;;;;9.02;5.82;;;11.80;99.90;;;;;;5041240;28;20034;-46
2023/10/28 09:35:08;;;;;;;9.82;5.40;;;11.90;99.90;;;;;;5038084;28;20041;-48
2023/10/28 09:37:35;;;;;;;7.70;4.88;;;11.90;99.90;;;;;;5039544;28;20395;-45
2023/10/28 09:40:04;;;;;;;9.45;5.63;;;11.90;99.90;;;;;;5050856;28;20037;-48
2023/10/28 09:42:37;;;;;;;9.90;5.28;;;12.00;99.90;;;;;;5050489;28;20124;-48
2023/10/28 09:45:05;;;;;;;9.05;4.82;;;12.00;99.90;;;;;;5051226;28;20114;-46
2023/10/28 09:47:38;;;;;;;6.07;4.47;;;12.10;99.90;;;;;;5063603;28;20403;-46
2023/10/28 09:50:07;;;;;;;7.80;4.38;;;12.00;99.90;;;;;;5050861;28;20041;-46
2023/10/28 09:52:34;;;;;;;8.05;5.07;;;12.10;99.90;;;;;;5049895;28;20551;-47
2023/10/28 09:55:07;;;;;;;8.65;4.70;;;12.10;99.90;;;;;;5050824;28;20029;-47
2023/10/28 09:57:34;;;;;;;7.95;5.00;;;12.10;99.90;;;;;;5050394;28;20483;-46
2023/10/28 10:00:05;;;;;;;11.07;5.05;;;12.10;99.90;;;;;;5050954;28;20041;-47
2023/10/28 10:02:54;;;;;;;9.90;4.65;;;12.20;99.90;;;;;;5050879;28;20099;-46
2023/10/28 10:05:40;;;;;;;9.20;5.03;;;12.10;99.90;;;;;;5050712;28;20041;-46
2023/10/28 10:08:16;;;;;;;9.88;4.30;;;12.10;99.90;;;;;;5050929;28;20441;-45
2023/10/28 10:10:45;;;;;;;8.45;4.78;;;12.10;99.90;;;;;;5066296;28;20395;-46
2023/10/28 10:13:11;;;;;;;;;;;12.10;99.90;;;;;;5061563;28;20037;-48
2023/10/28 10:15:44;;;;;;;5.07;3.85;;;12.10;99.90;;;;;;5050948;28;19924;-45
2023/10/28 10:18:21;;;;;;;6.78;4.30;;;12.10;99.90;;;;;;5050831;28;20033;-46
2023/10/28 10:20:47;;;;;;;8.88;4.75;;;12.10;99.90;;;;;;5051302;28;20049;-48
2023/10/28 10:23:14;;;;;;;15.05;4.57;;;12.10;99.90;;;;;;5050619;28;20593;-48
2023/10/28 10:25:43;;;;;;;10.77;4.35;;;12.10;99.90;;;;;;5050696;28;20090;-47
2023/10/28 10:28:19;;;;;;;7.53;4.35;;;12.10;99.90;;;;;;5049976;28;20045;-44
2023/10/28 10:30:45;;;;;;;9.48;4.57;;;12.10;99.90;;;;;;5053153;28;20387;-47
2023/10/28 10:33:11;;;;;;;9.32;3.95;;;12.10;99.90;;;;;;5053202;28;20033;-48
2023/10/28 10:35:38;;;;;;;8.80;3.78;;;12.10;99.90;;;;;;5053700;28;20478;-51
2023/10/28 10:38:06;;;;;;;7.32;4.10;;;12.10;99.90;;;;;;5054252;28;20037;-47
2023/10/28 10:40:55;;;;;;;11.32;4.35;;;12.10;99.90;;;;;;5054230;28;20044;-46
2023/10/28 10:43:21;;;;;;;12.88;3.95;;;12.20;99.90;;;;;;5054002;28;20060;-47
2023/10/28 10:45:48;;;;;;;7.65;4.35;;;12.30;99.90;;;;;;5054350;28;20044;-48
2023/10/28 10:48:16;;;;;;;9.35;3.78;;;12.30;99.90;;;;;;5053987;28;20033;-47
2023/10/28 10:50:43;;;;;;;6.90;4.00;;;12.40;99.90;;;;;;5054041;28;20509;-47
2023/10/28 10:53:09;;;;;;;8.65;4.18;;;12.30;99.90;;;;;;5053940;28;20040;-47
2023/10/28 10:55:35;;;;;;;5.65;3.72;;;12.30;99.90;;;;;;5053980;28;20037;-47
2023/10/28 10:58:01;;;;;;;10.07;4.50;;;12.40;99.90;;;;;;5053958;28;20087;-46
2023/10/28 11:00:27;;;;;;;7.35;3.92;;;12.40;99.90;;;;;;5053936;28;20561;-48
2023/10/28 11:03:00;;;;;;;10.35;4.05;;;12.30;99.90;;;;;;5054245;28;20455;-46
2023/10/28 11:05:30;;;;;;;8.18;3.55;;;12.40;99.90;;;;;;5052766;28;20044;-46
2023/10/28 11:07:56;;;;;;;6.82;3.53;;;12.40;99.90;;;;;;5053679;28;20056;-49
2023/10/28 11:10:23;;;;;;;11.00;3.67;;;12.40;99.90;;;;;;5065740;28;20136;-47
2023/10/28 11:12:49;;;;;;;7.55;3.90;;;12.40;99.90;;;;;;5070080;28;20506;-47
2023/10/28 11:15:15;;;;;;;11.02;4.40;;;12.50;99.90;;;;;;5053723;28;20036;-50
2023/10/28 11:17:42;;;;;;;7.22;4.00;;;12.50;99.90;;;;;;5053834;28;20383;-47
2023/10/28 11:20:10;;;;;;;7.40;3.47;;;12.50;99.90;;;;;;5053304;28;20037;-48
2023/10/28 11:22:37;;;;;;;10.27;4.87;;;12.50;99.90;;;;;;5052477;28;20408;-49
2023/10/28 11:25:06;;;;;;;9.30;3.67;;;12.60;99.90;;;;;;5052227;28;20619;-46
2023/10/28 11:27:31;;;;;;;7.45;3.50;;;12.60;99.90;;;;;;5053467;28;20384;-46
2023/10/28 11:29:58;;;;;;;6.03;3.45;;;12.60;99.90;;;;;;5053068;28;20063;-47
2023/10/28 11:32:26;;;;;;;8.13;3.90;;;12.60;99.90;;;;;;5053385;28;20065;-46
2023/10/28 11:34:54;;;;;;;9.05;4.30;;;12.60;99.90;;;;;;5053034;28;20040;-47
2023/10/28 11:37:20;;;;;;;10.18;3.90;;;12.60;99.90;;;;;;5053320;28;20399;-48
2023/10/28 11:39:48;;;;;;;12.18;3.33;;;12.60;99.90;;;;;;5052757;28;20052;-46
2023/10/28 11:42:18;;;;;;;9.55;4.40;;;12.60;99.90;;;;;;5053159;28;20039;-48
2023/10/28 11:44:49;;;;;;;10.20;3.47;;;12.70;99.90;;;;;;5052893;28;20480;-46
2023/10/28 11:47:15;;;;;;;10.50;3.85;;;12.70;99.90;;;;;;5039577;28;20056;-46
2023/10/28 11:49:41;;;;;;;8.65;3.20;;;12.70;99.90;;;;;;5052754;28;20044;-48
2023/10/28 11:52:09;;;;;;;7.60;3.70;;;12.70;99.90;;;;;;5052611;28;20075;-46
2023/10/28 11:54:35;;;;;;;10.75;3.70;;;12.80;99.90;;;;;;5053169;28;20463;-48
2023/10/28 11:57:00;;;;;;;13.27;3.67;;;12.80;99.90;;;;;;5052716;28;20067;-46
2023/10/28 11:59:26;;;;;;;12.07;3.80;;;12.80;99.90;;;;;;5052771;28;20387;-46
2023/10/28 12:01:53;;;;;;;10.38;3.25;;;12.80;99.90;;;;;;5052392;28;20044;-46
2023/10/28 12:04:23;;;;;;;12.43;3.85;;;12.80;99.90;;;;;;5052635;28;20040;-46
2023/10/28 12:06:48;;;;;;;12.68;4.07;;;12.80;99.90;;;;;;5052525;28;20044;-49
2023/10/28 12:09:14;;;;;;;4.97;2.97;;;12.80;99.90;;;;;;5071655;28;20057;-44
2023/10/28 12:11:41;;;;;;;6.57;2.80;;;12.80;99.90;;;;;;5072440;28;20119;-48
2023/10/28 12:14:13;;;;;;;5.65;3.03;;;12.80;99.90;;;;;;5057804;28;20041;-48
2023/10/28 12:16:39;;;;;;;11.55;3.45;;;12.90;99.90;;;;;;5051403;28;20542;-47
2023/10/28 12:19:08;;;;;;;8.35;4.10;;;12.80;99.90;;;;;;5052811;28;20071;-48
2023/10/28 12:21:34;;;;;;;13.65;3.03;;;12.80;99.90;;;;;;5052448;28;20072;-46
2023/10/28 12:24:00;;;;;;;7.90;3.08;;;12.80;99.90;;;;;;5052765;28;20041;-47
2023/10/28 12:26:26;;;;;;;11.38;3.35;;;12.80;99.90;;;;;;5052359;28;20727;-48
2023/10/28 12:28:52;;;;;;;7.82;2.95;;;12.80;99.90;;;;;;5052139;28;20033;-45
2023/10/28 12:31:25;;;;;;;7.00;3.13;;;12.80;99.90;;;;;;5050683;28;20037;-47